• Join FlightAware (Why Join?)
  • Login
  • US Flag 
02:32PM EDT


 

Airport Tracker/Info


-or-


 

Live Flight TrackerFlight Track Log ✈ N210CM ✈ 25-Apr-2013 ✈ KINT - KCLT

Flight Track Log - Related Links

Times and Time Zones

All times are in EDT time to prevent confusion due to time zone crossing. See the N210CM flight status page for this flight to view local times or setup timezone preferences in your user account.

Time Position Orientation Groundspeed Altitude Reporting Facility
EDT Latitude Longitude Course Direction KTS MPH feet Rate Location/Type
01:53PM 36.2078 -80.3025 219° Southwest 229 264 6,600  Level Atlanta Center
01:54PM 36.2531 -80.3467 322° Northwest 225 259 10,700 2,820 Climbing Atlanta Center
01:55PM 36.2347 -80.4350 256° West 184 212 12,300 1,080 Climbing Atlanta Center
01:56PM 36.2017 -80.5189 244° Southwest 223 257 12,900 300 Climbing Atlanta Center
01:57PM 36.1214 -80.5531 199° South 238 274 13,000  Climbing Atlanta Center
01:58PM 36.0319 -80.5647 186° South 271 312 13,000  Level Atlanta Center
01:59PM 35.6085 -80.5915 219° Southwest  Level FlightAware Approximate
01:59PM 35.9450 -80.5839 190° South 321 369 13,000  Level Atlanta Center
02:00PM 35.8828 -80.5967 189° South 320 368 13,000  Level Atlanta Center
02:00PM 35.8558 -80.6031 191° South 335 386 13,000  Level Atlanta Center
02:01PM 35.7981 -80.6286 200° South 313 360 13,000  Level Atlanta Center
02:01PM 35.7756 -80.6397 202° Southwest 324 373 13,000 -240 Level Atlanta Center
02:02PM 35.7178 -80.6675 201° Southwest 311 358 12,800 -420 Descending Atlanta Center
02:02PM 35.6931 -80.6764 196° South 317 365 12,600 -1,020 Descending Atlanta Center
02:03PM 35.6333 -80.7069 203° Southwest 304 350 11,800 -1,140 Descending Atlanta Center
02:03PM 35.6128 -80.7128 193° South 312 359 11,500 -840 Descending Atlanta Center
02:04PM 35.5508 -80.7408 200° South 313 360 11,000 -480 Descending Atlanta Center
02:05PM 35.4661 -80.7747 198° South 324 373 10,700 -360 Descending Atlanta Center
02:06PM 35.3703 -80.7894 187° South 322 371 10,300 -360 Descending FAA TRACON SMA TRACON (SMA)
02:07PM 35.3431 -80.7958 191° South 322 371 10,200 -480 Descending FAA TRACON SMA TRACON (SMA)
02:07PM 35.3083 -80.8028 189° South 325 374 10,000 -300 Descending FAA TRACON SMA TRACON (SMA)
02:07PM 35.2808 -80.8081 189° South 324 373 10,000  Level FAA TRACON SMA TRACON (SMA)
02:08PM 35.2533 -80.8139 190° South 325 374 10,000  Level FAA TRACON SMA TRACON (SMA)
02:08PM 35.2256 -80.8197 190° South 324 373 10,000  Level FAA TRACON SMA TRACON (SMA)
02:08PM 35.1908 -80.8267 189° South 325 374 10,000  Level FAA TRACON SMA TRACON (SMA)
02:09PM 35.1625 -80.8281 182° South 322 371 10,000 -900 Level FAA TRACON SMA TRACON (SMA)
02:09PM 35.1358 -80.8261 177° South 303 349 9,400 -1,620 Descending FAA TRACON SMA TRACON (SMA)
02:09PM 35.1050 -80.8222 174° South 279 321 8,900 -2,100 Descending FAA TRACON SMA TRACON (SMA)
02:10PM 35.0817 -80.8197 175° South 272 313 8,000 -2,820 Descending FAA TRACON SMA TRACON (SMA)
02:10PM 35.0583 -80.8186 178° South 271 312 7,100 -2,940 Descending FAA TRACON SMA TRACON (SMA)
02:11PM 34.9936 -80.8442 198° South 252 290 4,100 -2,340 Descending FAA TRACON SMA TRACON (SMA)
02:11PM 34.9886 -80.8739 258° West 219 252 4,000 -180 Descending FAA TRACON SMA TRACON (SMA)
02:12PM 34.9886 -80.8950 270° West 199 229 4,000  Level FAA TRACON SMA TRACON (SMA)
02:12PM 34.9997 -80.9075 317° Northwest 176 203 4,000 120 Level FAA TRACON SMA TRACON (SMA)
02:12PM 35.0164 -80.9158 338° Northwest 166 191 4,100 120 Climbing FAA TRACON SMA TRACON (SMA)
02:13PM 35.0308 -80.9192 349° North 173 199 4,100 -300 Level FAA TRACON SMA TRACON (SMA)
02:13PM 35.0464 -80.9211 354° North 183 211 3,900 -900 Descending FAA TRACON SMA TRACON (SMA)
02:13PM 35.0622 -80.9217 358° North 187 215 3,500 -1,260 Descending FAA TRACON SMA TRACON (SMA)
02:14PM 35.0819 -80.9236 355° North 184 212 3,100 -1,080 Descending FAA TRACON SMA TRACON (SMA)
02:14PM 35.0961 -80.9258 353° North 180 207 2,800 -900 Descending FAA TRACON SMA TRACON (SMA)
02:14PM 35.1114 -80.9269 357° North 171 197 2,500 -900 Descending FAA TRACON SMA TRACON (SMA)
02:15PM 35.1283 -80.9283 356° North 163 188 2,200 -900 Descending FAA TRACON SMA TRACON (SMA)
02:15PM 35.1425 -80.9292 357° North 165 190 1,900 -960 Descending FAA TRACON SMA TRACON (SMA)
02:15PM 35.1561 -80.9303 356° North 161 185 1,600 -900 Descending FAA TRACON SMA TRACON (SMA)
02:18PM 35.2000 -80.9333 North  Level FlightAware Approximate
02:25PM 35.2137 -80.9491 North  Level Estimated